Time;durP1;ratioP1;P1;durP2;ratioP2;P2;SDS_P1;SDS_P2;PMS_P1;PMS_P2;Temp;Humidity;BMP_temperature;BMP_pressure;BME280_temperature;BME280_humidity;BME280_pressure;Samples;Min_cycle;Max_cycle;Signal;HPM_P1;HPM_P2
2021/09/21 00:00:42;;;;;;;3.70;1.25;;;16.60;71.40;;;;;;4954014;29;20094;-76
2021/09/21 00:03:08;;;;;;;5.05;1.20;;;16.60;71.80;;;;;;4952553;29;20086;-76
2021/09/21 00:05:34;;;;;;;3.40;1.40;;;16.60;71.60;;;;;;4954721;29;20493;-77
2021/09/21 00:08:00;;;;;;;2.53;1.23;;;16.60;71.20;;;;;;4954944;29;20039;-77
2021/09/21 00:10:26;;;;;;;4.80;1.45;;;16.60;71.60;;;;;;4954364;29;20031;-78
2021/09/21 00:12:52;;;;;;;3.35;1.10;;;16.60;71.80;;;;;;4954399;29;20028;-78
2021/09/21 00:15:19;;;;;;;5.00;1.30;;;16.60;72.00;;;;;;4954340;29;20027;-78
2021/09/21 00:17:49;;;;;;;4.25;1.40;;;16.50;71.60;;;;;;4954353;29;20067;-78
2021/09/21 00:20:17;;;;;;;4.60;1.50;;;16.60;71.90;;;;;;4955204;29;20050;-77
2021/09/21 00:22:44;;;;;;;3.40;1.23;;;16.50;71.80;;;;;;4954297;29;20489;-78
2021/09/21 00:25:12;;;;;;;3.97;1.33;;;16.50;72.20;;;;;;4954186;29;20508;-77
2021/09/21 00:27:39;;;;;;;4.00;1.35;;;16.50;72.10;;;;;;4954171;29;20036;-78
2021/09/21 00:30:06;;;;;;;5.15;1.60;;;16.50;72.10;;;;;;4936599;29;20408;-78
2021/09/21 00:32:33;;;;;;;4.10;1.10;;;16.50;72.20;;;;;;4951959;29;20023;-77
2021/09/21 00:34:58;;;;;;;4.30;1.30;;;16.50;72.30;;;;;;4946689;29;20044;-78
2021/09/21 00:37:24;;;;;;;3.47;1.13;;;16.50;72.70;;;;;;4951266;29;20042;-78
2021/09/21 00:39:50;;;;;;;3.67;1.38;;;16.40;72.30;;;;;;4954149;29;20026;-78
2021/09/21 00:42:26;;;;;;;4.15;1.52;;;16.50;72.50;;;;;;4953900;29;20484;-77
2021/09/21 00:45:06;;;;;;;4.40;1.45;;;16.50;72.10;;;;;;4939043;29;20027;-77
2021/09/21 00:47:32;;;;;;;5.53;1.30;;;16.40;72.50;;;;;;4953802;29;20034;-78
2021/09/21 00:49:58;;;;;;;5.47;1.27;;;16.40;72.90;;;;;;4954244;29;20043;-78
2021/09/21 00:52:24;;;;;;;3.42;1.20;;;16.40;72.60;;;;;;4953614;29;20054;-78
2021/09/21 00:54:50;;;;;;;2.92;1.05;;;16.30;72.50;;;;;;4953827;29;20020;-77
2021/09/21 00:57:16;;;;;;;4.10;1.30;;;16.40;72.60;;;;;;4953761;29;20086;-77
2021/09/21 00:59:42;;;;;;;2.83;1.10;;;16.30;72.90;;;;;;4953035;29;20023;-77
2021/09/21 01:02:08;;;;;;;4.00;1.40;;;16.30;72.70;;;;;;4935884;29;20031;-76
2021/09/21 01:04:35;;;;;;;4.38;1.00;;;16.20;72.70;;;;;;4952561;29;20031;-77
2021/09/21 01:07:00;;;;;;;4.45;1.40;;;16.20;72.90;;;;;;4953180;29;20122;-77
2021/09/21 01:09:28;;;;;;;5.35;1.23;;;16.20;73.00;;;;;;4935398;29;20576;-76
2021/09/21 01:11:56;;;;;;;3.63;1.38;;;16.20;73.10;;;;;;4953504;29;20035;-77
2021/09/21 01:14:22;;;;;;;5.40;1.35;;;16.10;73.20;;;;;;4936036;29;20027;-77
2021/09/21 01:16:50;;;;;;;2.00;1.10;;;16.10;73.30;;;;;;4953864;29;20122;-77
2021/09/21 01:19:16;;;;;;;2.45;1.13;;;16.10;73.40;;;;;;4953229;29;20032;-77
2021/09/21 01:21:43;;;;;;;3.05;1.08;;;16.10;73.50;;;;;;4953310;29;20055;-77
2021/09/21 01:24:10;;;;;;;4.68;1.10;;;16.10;73.50;;;;;;4953478;29;20023;-77
2021/09/21 01:26:36;;;;;;;2.58;1.10;;;16.10;73.20;;;;;;4953406;29;20031;-76
2021/09/21 01:29:01;;;;;;;4.47;1.33;;;16.00;73.70;;;;;;4953550;29;20089;-77
2021/09/21 01:31:27;;;;;;;4.30;1.20;;;16.00;73.50;;;;;;4953286;29;20027;-78
2021/09/21 01:33:53;;;;;;;3.65;1.10;;;16.00;73.50;;;;;;4935568;29;20464;-77
2021/09/21 01:36:22;;;;;;;3.42;1.00;;;16.00;73.80;;;;;;4953126;29;20035;-78
2021/09/21 01:38:48;;;;;;;4.22;1.00;;;15.90;73.60;;;;;;4938082;29;20480;-78
2021/09/21 01:41:14;;;;;;;3.92;1.05;;;15.90;73.70;;;;;;4949898;29;20031;-78
2021/09/21 01:43:42;;;;;;;3.03;1.10;;;15.80;73.80;;;;;;4952885;29;20066;-77
2021/09/21 01:46:10;;;;;;;5.68;1.30;;;15.80;73.90;;;;;;4953189;29;20114;-77
2021/09/21 01:48:36;;;;;;;3.45;1.10;;;15.80;74.00;;;;;;4953236;29;20500;-77
2021/09/21 01:51:04;;;;;;;5.13;1.05;;;15.80;74.00;;;;;;4953222;29;20031;-77
2021/09/21 01:58:55;;;;;;;4.65;1.25;;;15.70;74.10;;;;;;4953282;29;20122;-77
2021/09/21 02:01:26;;;;;;;4.90;1.17;;;15.60;74.30;;;;;;4952989;29;20110;-77
2021/09/21 02:03:54;;;;;;;3.78;1.27;;;15.60;74.40;;;;;;4952486;29;20031;-78
2021/09/21 02:06:24;;;;;;;4.22;1.17;;;15.60;74.60;;;;;;4929594;29;20031;-78
2021/09/21 02:08:49;;;;;;;3.60;1.02;;;15.60;74.70;;;;;;4946109;29;20523;-77
2021/09/21 02:11:15;;;;;;;3.50;1.38;;;15.60;74.60;;;;;;4953592;29;20028;-78
2021/09/21 02:13:41;;;;;;;3.15;1.20;;;15.60;74.60;;;;;;4952913;29;20158;-78
2021/09/21 02:16:07;;;;;;;3.20;1.10;;;15.50;75.00;;;;;;4952946;29;20121;-78
2021/09/21 02:18:33;;;;;;;4.15;0.95;;;15.50;74.90;;;;;;4953020;29;20031;-78
2021/09/21 02:20:59;;;;;;;3.92;1.17;;;15.50;75.20;;;;;;4954596;28;20031;-78
2021/09/21 02:23:25;;;;;;;2.97;1.00;;;15.40;75.00;;;;;;4956573;29;20032;-77
2021/09/21 02:25:50;;;;;;;3.33;1.10;;;15.50;75.10;;;;;;4956679;29;20039;-77
2021/09/21 02:28:17;;;;;;;3.50;1.20;;;15.50;75.10;;;;;;4956279;29;20062;-77
2021/09/21 02:30:43;;;;;;;4.15;1.27;;;15.50;75.30;;;;;;4956348;29;20031;-77
2021/09/21 02:33:09;;;;;;;2.05;1.00;;;15.40;74.90;;;;;;4956184;29;20504;-77
2021/09/21 02:35:35;;;;;;;3.65;1.38;;;15.40;75.50;;;;;;4955317;29;20511;-77
2021/09/21 02:38:00;;;;;;;2.17;0.95;;;15.40;75.50;;;;;;4956665;29;20054;-77
2021/09/21 02:40:28;;;;;;;3.72;1.23;;;15.40;75.60;;;;;;4955821;29;20034;-77
2021/09/21 02:42:54;;;;;;;3.50;1.48;;;15.40;75.60;;;;;;4956208;29;20496;-77
2021/09/21 02:45:20;;;;;;;4.70;1.20;;;15.40;75.50;;;;;;4956070;29;20078;-77
2021/09/21 02:47:45;;;;;;;3.03;1.30;;;15.40;75.90;;;;;;4956126;29;20472;-77
2021/09/21 02:50:11;;;;;;;4.30;1.00;;;15.40;75.90;;;;;;4956564;29;20030;-77
2021/09/21 02:52:38;;;;;;;3.15;1.38;;;15.40;76.00;;;;;;4955891;29;20031;-78
2021/09/21 02:55:04;;;;;;;4.25;1.35;;;15.40;76.40;;;;;;4955698;29;20059;-78
2021/09/21 02:57:36;;;;;;;4.43;1.40;;;15.50;76.20;;;;;;4955824;29;20032;-78
2021/09/21 03:00:08;;;;;;;2.57;1.27;;;15.50;76.10;;;;;;4955848;29;20215;-78
2021/09/21 03:02:35;;;;;;;4.70;1.48;;;15.50;76.00;;;;;;4955961;29;20054;-78
2021/09/21 03:05:06;;;;;;;2.40;1.38;;;15.50;76.40;;;;;;4956326;29;20027;-78
2021/09/21 03:07:38;;;;;;;3.15;1.30;;;15.60;76.10;;;;;;4955669;29;20031;-78
2021/09/21 03:13:03;;;;;;;2.78;1.33;;;15.60;76.50;;;;;;4955530;29;20062;-79
2021/09/21 03:18:12;;;;;;;3.95;1.35;;;15.60;76.70;;;;;;4955706;29;20515;-78
2021/09/21 03:20:38;;;;;;;3.03;1.33;;;15.60;76.80;;;;;;4955791;29;20023;-78
2021/09/21 03:23:04;;;;;;;4.65;1.70;;;15.60;77.00;;;;;;4956114;29;20106;-78
2021/09/21 03:25:30;;;;;;;4.00;1.70;;;15.60;76.80;;;;;;4955161;29;20027;-79
2021/09/21 03:27:55;;;;;;;2.55;1.50;;;15.70;76.80;;;;;;4955509;29;20492;-79
2021/09/21 03:30:21;;;;;;;4.28;1.48;;;15.70;76.50;;;;;;4955002;29;20120;-80
2021/09/21 03:32:47;;;;;;;2.53;1.20;;;15.60;76.40;;;;;;4954248;28;20027;-79
2021/09/21 03:35:12;;;;;;;3.72;1.60;;;15.60;76.90;;;;;;4954298;29;20062;-79
2021/09/21 03:37:38;;;;;;;3.13;1.60;;;15.60;76.90;;;;;;4954167;29;20500;-77
2021/09/21 03:40:09;;;;;;;4.10;1.65;;;15.60;76.70;;;;;;4962360;29;20030;-78
2021/09/21 03:42:35;;;;;;;4.57;1.67;;;15.60;76.80;;;;;;4970459;29;20031;-79
2021/09/21 03:45:00;;;;;;;4.05;1.63;;;15.60;76.90;;;;;;4967583;29;20019;-77
2021/09/21 03:47:26;;;;;;;4.95;1.70;;;15.60;76.90;;;;;;4973277;29;20035;-79
2021/09/21 03:49:52;;;;;;;5.72;1.60;;;15.60;77.30;;;;;;4955889;29;20492;-78
2021/09/21 03:52:17;;;;;;;3.72;1.63;;;15.50;77.30;;;;;;4954505;29;20031;-79
2021/09/21 03:54:43;;;;;;;4.22;1.95;;;15.50;77.10;;;;;;4954821;29;20047;-79
2021/09/21 03:57:09;;;;;;;6.43;1.85;;;15.50;77.00;;;;;;4954866;29;20050;-79
2021/09/21 03:59:34;;;;;;;4.65;1.73;;;15.50;77.30;;;;;;4954934;29;20035;-76
2021/09/21 04:02:00;;;;;;;3.63;1.40;;;15.40;77.00;;;;;;4954631;29;20042;-77
2021/09/21 04:04:25;;;;;;;3.17;1.40;;;15.50;77.40;;;;;;4954528;29;20035;-76
2021/09/21 04:06:51;;;;;;;3.03;1.58;;;15.40;77.20;;;;;;4953775;29;20106;-77
2021/09/21 04:09:17;;;;;;;3.70;1.60;;;15.50;77.30;;;;;;4954428;29;20031;-77
2021/09/21 04:11:42;;;;;;;5.13;1.65;;;15.40;77.40;;;;;;4936537;29;20031;-77
2021/09/21 04:14:08;;;;;;;3.83;1.70;;;15.40;77.50;;;;;;4954397;29;20034;-77
2021/09/21 04:16:34;;;;;;;4.28;1.40;;;15.40;78.30;;;;;;4954040;29;20082;-77
2021/09/21 04:19:00;;;;;;;5.82;2.05;;;15.40;77.30;;;;;;4954021;29;20031;-78
2021/09/21 04:21:26;;;;;;;4.95;1.70;;;15.40;77.50;;;;;;4952318;29;20038;-78
2021/09/21 04:23:53;;;;;;;4.82;1.67;;;15.30;77.10;;;;;;4944081;29;20114;-78
2021/09/21 04:26:19;;;;;;;3.63;1.80;;;15.30;77.50;;;;;;4950358;29;20110;-78
2021/09/21 04:28:45;;;;;;;2.63;1.52;;;15.30;77.60;;;;;;4953802;29;20031;-77
2021/09/21 04:31:15;;;;;;;4.13;1.40;;;15.30;77.90;;;;;;4954212;29;20086;-77
2021/09/21 04:33:42;;;;;;;3.70;1.60;;;15.30;77.90;;;;;;4953664;29;20070;-77
2021/09/21 04:36:10;;;;;;;3.55;1.73;;;15.30;77.90;;;;;;4953092;29;20512;-77
2021/09/21 04:38:36;;;;;;;3.42;1.70;;;15.20;77.80;;;;;;4953558;29;20023;-78
2021/09/21 04:41:04;;;;;;;4.78;2.00;;;15.20;77.90;;;;;;4954070;29;20023;-79
2021/09/21 04:43:30;;;;;;;5.28;1.67;;;15.20;78.10;;;;;;4953162;28;20031;-78
2021/09/21 04:45:58;;;;;;;3.67;1.67;;;15.20;78.20;;;;;;4952746;29;20051;-77
2021/09/21 04:48:24;;;;;;;4.10;1.73;;;15.20;78.30;;;;;;4949421;29;20071;-78
2021/09/21 04:50:50;;;;;;;2.85;1.60;;;15.20;78.20;;;;;;4952961;29;20416;-77
2021/09/21 04:53:16;;;;;;;5.03;2.28;;;15.20;78.00;;;;;;4953951;29;20054;-78
2021/09/21 04:55:41;;;;;;;3.65;1.90;;;15.10;78.10;;;;;;4953222;29;20031;-78
2021/09/21 04:58:08;;;;;;;5.28;2.10;;;15.10;78.40;;;;;;4952927;29;20134;-78
2021/09/21 05:00:33;;;;;;;4.28;2.05;;;15.10;78.50;;;;;;4953161;29;20039;-77
2021/09/21 05:02:59;;;;;;;6.30;2.20;;;15.10;78.30;;;;;;4953659;29;20039;-77
2021/09/21 05:05:25;;;;;;;4.15;1.98;;;15.10;78.40;;;;;;4952807;29;20019;-77
2021/09/21 05:07:50;;;;;;;3.70;1.67;;;15.10;78.50;;;;;;4953129;29;20074;-76
2021/09/21 05:10:16;;;;;;;3.78;2.05;;;15.20;78.50;;;;;;4951739;29;20028;-77
2021/09/21 05:12:43;;;;;;;4.20;2.00;;;15.10;78.60;;;;;;4952795;29;20051;-76
2021/09/21 05:15:10;;;;;;;4.13;2.20;;;15.20;78.60;;;;;;4953011;29;20031;-76
2021/09/21 05:17:37;;;;;;;2.42;1.80;;;15.10;78.40;;;;;;4952086;29;20039;-77
2021/09/21 05:20:03;;;;;;;3.90;2.17;;;15.10;78.40;;;;;;4932617;29;20639;-77
2021/09/21 05:22:29;;;;;;;4.82;2.08;;;15.10;78.50;;;;;;4942853;29;20432;-78
2021/09/21 05:24:55;;;;;;;3.80;2.25;;;15.10;78.70;;;;;;4945188;29;20015;-78
2021/09/21 05:27:20;;;;;;;3.38;2.28;;;15.10;78.70;;;;;;4943950;29;20403;-76
2021/09/21 05:29:46;;;;;;;5.95;2.45;;;15.10;79.10;;;;;;4945100;29;20032;-77
2021/09/21 05:32:11;;;;;;;6.03;2.70;;;15.10;78.80;;;;;;4936536;29;20032;-76
2021/09/21 05:34:37;;;;;;;5.22;2.72;;;15.10;79.00;;;;;;4951748;29;20456;-76
2021/09/21 05:37:03;;;;;;;3.03;2.13;;;15.20;79.00;;;;;;4952167;29;20043;-75
2021/09/21 05:39:28;;;;;;;5.30;2.55;;;15.20;79.10;;;;;;4952128;29;20400;-76
2021/09/21 05:41:54;;;;;;;4.65;2.45;;;15.20;79.10;;;;;;4952792;29;20086;-74
2021/09/21 05:44:19;;;;;;;4.90;2.75;;;15.10;79.00;;;;;;4935726;29;20428;-74
2021/09/21 05:46:45;;;;;;;4.90;2.72;;;15.10;79.10;;;;;;4952235;29;20102;-75
2021/09/21 05:49:11;;;;;;;5.30;2.67;;;15.10;79.00;;;;;;4952275;29;20040;-76
2021/09/21 05:51:37;;;;;;;5.82;2.78;;;15.10;79.30;;;;;;4952359;29;20035;-77
2021/09/21 05:54:03;;;;;;;5.05;2.78;;;15.10;79.00;;;;;;4951946;29;20503;-76
2021/09/21 05:56:28;;;;;;;4.05;2.80;;;15.10;79.20;;;;;;4955289;28;20035;-76
2021/09/21 05:58:54;;;;;;;5.85;3.03;;;15.10;79.30;;;;;;4956940;29;20043;-76
2021/09/21 06:01:20;;;;;;;5.05;3.30;;;15.10;79.20;;;;;;4955849;29;20015;-76
2021/09/21 06:03:45;;;;;;;5.70;3.47;;;15.10;79.60;;;;;;4955828;29;20031;-76
2021/09/21 06:06:11;;;;;;;5.95;3.20;;;15.10;79.70;;;;;;4955059;29;20392;-75
2021/09/21 06:08:37;;;;;;;5.55;3.00;;;15.20;79.70;;;;;;4951395;29;20126;-74
2021/09/21 06:11:02;;;;;;;4.50;2.83;;;15.20;79.60;;;;;;4956123;29;20385;-75
2021/09/21 06:13:28;;;;;;;5.45;3.13;;;15.20;79.60;;;;;;4955931;29;20085;-74
2021/09/21 06:15:54;;;;;;;5.65;3.63;;;15.30;79.70;;;;;;4955747;29;20031;-75
2021/09/21 06:18:19;;;;;;;4.90;3.20;;;15.40;79.70;;;;;;4938513;29;20130;-74
2021/09/21 06:20:45;;;;;;;7.35;3.25;;;15.50;79.50;;;;;;4940627;29;20026;-76
2021/09/21 06:23:11;;;;;;;5.28;3.10;;;15.50;79.40;;;;;;4952257;29;20043;-73
2021/09/21 06:25:40;;;;;;;6.35;3.40;;;15.50;79.90;;;;;;4955050;29;20035;-76
2021/09/21 06:28:06;;;;;;;5.55;3.42;;;15.50;78.80;;;;;;4955538;29;20023;-75
2021/09/21 06:30:32;;;;;;;4.85;3.05;;;15.50;78.80;;;;;;4936750;29;21081;-74
2021/09/21 06:32:58;;;;;;;6.95;3.65;;;15.50;79.00;;;;;;4950728;29;20122;-74
2021/09/21 06:35:24;;;;;;;6.63;4.30;;;15.50;79.20;;;;;;4950103;29;20233;-74
2021/09/21 06:37:50;;;;;;;8.27;3.97;;;15.50;79.50;;;;;;4905009;29;20058;-74
2021/09/21 06:40:17;;;;;;;5.15;3.58;;;15.50;79.30;;;;;;4870666;29;20082;-75
2021/09/21 06:42:44;;;;;;;5.78;3.75;;;15.50;79.50;;;;;;4886569;29;20039;-73
2021/09/21 06:45:13;;;;;;;8.18;4.43;;;15.60;79.20;;;;;;4920415;29;20500;-74
2021/09/21 06:47:39;;;;;;;5.97;4.03;;;15.60;79.40;;;;;;4895839;29;20035;-75
2021/09/21 06:50:05;;;;;;;6.45;4.18;;;15.70;79.40;;;;;;4913165;29;20024;-74
2021/09/21 06:52:31;;;;;;;6.38;4.30;;;15.80;79.10;;;;;;4913898;29;20043;-75
2021/09/21 06:54:57;;;;;;;7.47;4.50;;;15.90;79.20;;;;;;4905134;29;20688;-77
2021/09/21 06:57:23;;;;;;;6.72;4.18;;;15.90;79.00;;;;;;4911168;29;20079;-76
2021/09/21 06:59:49;;;;;;;7.25;4.85;;;16.00;78.90;;;;;;4884080;29;20036;-76
2021/09/21 07:02:15;;;;;;;6.60;4.55;;;16.00;78.90;;;;;;4891449;29;20047;-77
2021/09/21 07:04:40;;;;;;;6.55;4.70;;;16.00;78.70;;;;;;4923645;29;20099;-76
2021/09/21 07:07:06;;;;;;;6.75;4.68;;;16.10;78.70;;;;;;4947605;28;20042;-76
2021/09/21 07:09:32;;;;;;;6.88;4.88;;;16.10;78.80;;;;;;4947806;29;20298;-76
2021/09/21 07:11:58;;;;;;;7.13;4.72;;;16.20;78.70;;;;;;4936149;29;20404;-75
2021/09/21 07:14:24;;;;;;;8.07;5.35;;;16.20;79.00;;;;;;4947460;29;20028;-77
2021/09/21 07:16:49;;;;;;;9.18;5.38;;;16.20;78.40;;;;;;4951604;29;20094;-77
2021/09/21 07:19:16;;;;;;;7.88;5.22;;;16.20;78.80;;;;;;4936061;29;20028;-77
2021/09/21 07:21:43;;;;;;;8.25;5.22;;;16.20;78.50;;;;;;4952230;29;20089;-74
2021/09/21 07:24:09;;;;;;;7.78;5.22;;;16.20;78.60;;;;;;4951705;29;20055;-75
2021/09/21 07:26:35;;;;;;;7.07;4.88;;;16.10;78.10;;;;;;4952169;29;20032;-75
2021/09/21 07:29:00;;;;;;;7.15;4.85;;;16.10;78.50;;;;;;4954071;29;20015;-76
2021/09/21 07:31:26;;;;;;;7.57;5.50;;;16.10;78.50;;;;;;4948356;29;20035;-76
2021/09/21 07:33:52;;;;;;;6.95;4.78;;;16.10;78.80;;;;;;4952886;29;20042;-75
2021/09/21 07:36:17;;;;;;;7.18;5.20;;;16.20;79.10;;;;;;4948110;29;20420;-74
2021/09/21 07:38:43;;;;;;;7.57;5.00;;;16.30;79.10;;;;;;4947081;29;20027;-74
2021/09/21 07:41:09;;;;;;;8.57;4.75;;;16.30;79.30;;;;;;4954519;29;20039;-76
2021/09/21 07:43:34;;;;;;;8.18;5.55;;;16.40;79.30;;;;;;4943518;29;20079;-72
2021/09/21 07:46:00;;;;;;;9.50;5.85;;;16.40;78.80;;;;;;4931804;29;20126;-74
2021/09/21 07:48:26;;;;;;;8.98;5.50;;;16.40;78.80;;;;;;4924475;29;20042;-77
2021/09/21 07:50:52;;;;;;;9.02;5.63;;;16.50;78.90;;;;;;4938060;29;20971;-75
2021/09/21 07:53:17;;;;;;;7.70;5.60;;;16.50;78.70;;;;;;4945296;29;20099;-74
2021/09/21 07:55:43;;;;;;;8.73;6.07;;;16.50;78.50;;;;;;4944825;29;20433;-75
2021/09/21 07:58:09;;;;;;;9.02;5.72;;;16.50;78.70;;;;;;4931329;29;20075;-78
2021/09/21 08:00:35;;;;;;;9.38;6.05;;;16.50;78.70;;;;;;4949845;29;20039;-77
2021/09/21 08:03:00;;;;;;;8.93;6.00;;;16.50;78.60;;;;;;4946367;29;20269;-78
2021/09/21 08:05:26;;;;;;;9.60;5.72;;;16.50;78.70;;;;;;4946454;29;20488;-75
2021/09/21 08:07:52;;;;;;;11.55;6.32;;;16.50;78.90;;;;;;4944793;29;20452;-75
2021/09/21 08:10:18;;;;;;;8.88;5.55;;;16.50;78.80;;;;;;4947447;29;20036;-76
2021/09/21 08:12:45;;;;;;;9.93;6.05;;;16.60;79.00;;;;;;4947265;29;20515;-80
2021/09/21 08:15:12;;;;;;;8.93;5.57;;;16.60;79.40;;;;;;4944452;29;20111;-79
2021/09/21 08:17:37;;;;;;;10.45;6.15;;;16.70;79.30;;;;;;4949947;28;20106;-79
2021/09/21 08:20:05;;;;;;;10.32;6.18;;;16.80;79.20;;;;;;4946751;29;20055;-82
2021/09/21 08:22:30;;;;;;;8.98;5.82;;;16.80;79.00;;;;;;4947914;29;20102;-77
2021/09/21 08:24:56;;;;;;;9.80;6.10;;;16.90;79.20;;;;;;4947761;29;20457;-80
2021/09/21 08:27:23;;;;;;;11.25;6.25;;;16.90;78.70;;;;;;4944420;28;20023;-78
2021/09/21 08:29:49;;;;;;;10.13;6.10;;;17.00;78.80;;;;;;4935928;29;20055;-80
2021/09/21 08:32:15;;;;;;;8.73;6.03;;;17.10;79.00;;;;;;4931794;29;20055;-73
2021/09/21 08:34:41;;;;;;;9.27;6.38;;;17.20;79.10;;;;;;4939430;29;20233;-79
2021/09/21 08:37:06;;;;;;;9.25;6.35;;;17.30;79.00;;;;;;4925326;29;20036;-76
2021/09/21 08:39:32;;;;;;;8.77;6.63;;;17.40;79.00;;;;;;4945083;29;20870;-76
2021/09/21 08:41:58;;;;;;;10.52;6.78;;;17.60;79.10;;;;;;4944166;29;20031;-73
2021/09/21 08:44:24;;;;;;;11.98;7.05;;;17.90;79.20;;;;;;4942563;29;20038;-72
2021/09/21 08:46:49;;;;;;;9.30;6.57;;;18.10;78.30;;;;;;4942174;29;20047;-73
2021/09/21 08:49:15;;;;;;;9.63;6.55;;;18.30;77.70;;;;;;4942315;29;20601;-74
2021/09/21 08:51:42;;;;;;;8.43;6.57;;;18.40;77.00;;;;;;4940346;29;20036;-73
2021/09/21 08:54:08;;;;;;;9.45;6.32;;;18.50;77.20;;;;;;4947810;29;20038;-72
2021/09/21 08:56:34;;;;;;;8.57;6.25;;;18.90;77.40;;;;;;4934483;29;20039;-72
2021/09/21 08:59:04;;;;;;;10.48;6.07;;;19.20;76.20;;;;;;4951399;29;20481;-73
2021/09/21 09:01:48;;;;;;;8.70;6.07;;;19.40;76.00;;;;;;4933113;29;20086;-73
2021/09/21 09:04:17;;;;;;;9.65;6.20;;;19.60;75.10;;;;;;4945492;29;20038;-74
2021/09/21 09:06:45;;;;;;;8.75;5.70;;;19.70;74.20;;;;;;4940947;29;20172;-75
2021/09/21 09:09:22;;;;;;;8.70;6.53;;;20.10;74.70;;;;;;4940205;29;20082;-76
2021/09/21 09:11:50;;;;;;;9.65;6.32;;;20.40;71.80;;;;;;4936796;29;20117;-77
2021/09/21 09:14:21;;;;;;;10.20;6.38;;;20.40;69.80;;;;;;4948456;29;20416;-75
2021/09/21 09:16:53;;;;;;;10.40;6.93;;;20.60;70.00;;;;;;4952258;29;20448;-74
2021/09/21 09:19:18;;;;;;;8.43;5.90;;;20.40;67.90;;;;;;4942782;29;20106;-72
2021/09/21 09:21:45;;;;;;;8.40;6.03;;;20.50;68.40;;;;;;4942750;29;20079;-74
2021/09/21 09:24:13;;;;;;;7.32;6.18;;;20.80;68.30;;;;;;4951635;29;20448;-74
2021/09/21 09:26:42;;;;;;;9.25;5.80;;;21.10;69.30;;;;;;4935179;29;20517;-75
2021/09/21 09:29:18;;;;;;;7.07;5.22;;;21.50;69.70;;;;;;4952108;28;20043;-75
2021/09/21 09:31:46;;;;;;;6.95;5.28;;;21.70;68.10;;;;;;4955246;29;20098;-76
2021/09/21 09:34:25;;;;;;;8.05;5.53;;;21.70;67.50;;;;;;4955365;29;20115;-73
2021/09/21 09:36:59;;;;;;;7.50;5.55;;;22.10;69.20;;;;;;4925627;29;20035;-71
2021/09/21 09:39:28;;;;;;;6.60;5.35;;;22.20;65.00;;;;;;4945638;29;20040;-70
2021/09/21 09:41:56;;;;;;;8.45;5.82;;;22.10;65.40;;;;;;4927980;29;20031;-72
2021/09/21 09:44:24;;;;;;;8.75;5.95;;;21.80;63.90;;;;;;4938565;29;20036;-72
2021/09/21 09:47:03;;;;;;;9.27;5.90;;;21.50;65.30;;;;;;4942577;29;20115;-72
2021/09/21 09:49:32;;;;;;;7.10;5.30;;;21.40;65.80;;;;;;4942903;29;20039;-70
2021/09/21 09:52:08;;;;;;;7.15;5.28;;;21.80;67.20;;;;;;4929727;29;20016;-68
2021/09/21 09:54:39;;;;;;;6.88;5.20;;;22.20;67.70;;;;;;4943718;29;20087;-68
2021/09/21 09:57:05;;;;;;;6.57;4.25;;;22.70;66.30;;;;;;4944673;29;20062;-70
2021/09/21 09:59:31;;;;;;;5.80;4.05;;;23.10;65.70;;;;;;4945610;29;20015;-72
2021/09/21 10:01:57;;;;;;;6.63;4.70;;;23.50;64.70;;;;;;4930708;29;20034;-71
2021/09/21 10:04:23;;;;;;;6.72;4.57;;;23.60;62.30;;;;;;4947377;29;20031;-71
2021/09/21 10:06:49;;;;;;;5.72;4.43;;;23.80;60.70;;;;;;4944785;29;20034;-72
2021/09/21 10:09:15;;;;;;;5.60;4.45;;;24.00;61.60;;;;;;4948009;29;20039;-72
2021/09/21 10:11:45;;;;;;;8.40;4.65;;;24.20;61.60;;;;;;4953885;29;20039;-74
2021/09/21 10:14:12;;;;;;;6.60;4.60;;;24.10;59.60;;;;;;4956124;29;20397;-72
2021/09/21 10:17:01;;;;;;;6.82;4.82;;;23.70;58.40;;;;;;4955328;29;20031;-78
2021/09/21 10:19:28;;;;;;;9.40;6.78;;;23.50;59.60;;;;;;4955873;29;20031;-74
2021/09/21 10:21:55;;;;;;;6.28;4.40;;;23.30;58.30;;;;;;4956371;29;20054;-71
2021/09/21 10:24:32;;;;;;;6.40;4.68;;;23.80;59.70;;;;;;4952897;29;20066;-71
2021/09/21 10:27:06;;;;;;;6.32;4.82;;;23.70;57.70;;;;;;4949099;29;20038;-71
2021/09/21 10:29:32;;;;;;;4.82;4.32;;;23.60;57.40;;;;;;4945052;29;20043;-71
2021/09/21 10:31:58;;;;;;;6.07;4.10;;;24.10;57.40;;;;;;4956248;29;20027;-70
2021/09/21 10:34:24;;;;;;;5.88;4.10;;;24.60;57.20;;;;;;4949309;29;20118;-70
2021/09/21 10:36:51;;;;;;;5.63;4.13;;;25.10;56.50;;;;;;4950190;29;20174;-72
2021/09/21 10:39:19;;;;;;;7.43;5.25;;;25.00;53.00;;;;;;4955325;29;20747;-72
2021/09/21 10:41:46;;;;;;;6.95;5.13;;;24.60;51.80;;;;;;4955245;28;20065;-69
2021/09/21 10:44:12;;;;;;;5.80;3.88;;;24.70;52.60;;;;;;4955878;29;20027;-70
2021/09/21 10:46:54;;;;;;;4.03;3.40;;;25.20;54.80;;;;;;4955021;29;20674;-71
2021/09/21 10:49:35;;;;;;;4.80;3.80;;;25.70;53.50;;;;;;4953207;29;20035;-69
2021/09/21 10:52:04;;;;;;;7.15;3.38;;;26.00;52.00;;;;;;4954810;29;20023;-69
2021/09/21 10:54:34;;;;;;;4.15;3.17;;;26.00;50.00;;;;;;4954516;29;20499;-68
2021/09/21 10:57:10;;;;;;;5.97;3.58;;;25.70;52.10;;;;;;4954991;29;20039;-71
2021/09/21 10:59:36;;;;;;;4.28;3.60;;;25.80;51.40;;;;;;4954616;29;20035;-70
2021/09/21 11:02:06;;;;;;;4.75;3.47;;;26.00;49.10;;;;;;4954998;29;20118;-70
2021/09/21 11:04:43;;;;;;;4.22;3.33;;;25.90;48.80;;;;;;4954506;29;20046;-71
2021/09/21 11:07:10;;;;;;;5.35;3.05;;;26.00;49.70;;;;;;4955395;29;20047;-68
2021/09/21 11:09:36;;;;;;;3.42;2.90;;;26.60;50.10;;;;;;4951970;29;20043;-71
2021/09/21 11:12:12;;;;;;;4.43;3.47;;;27.20;49.10;;;;;;4949745;29;20023;-71
2021/09/21 11:14:43;;;;;;;4.65;3.15;;;27.60;48.70;;;;;;4955210;29;20106;-71
2021/09/21 11:17:10;;;;;;;4.60;2.88;;;27.40;47.90;;;;;;4955260;29;20035;-72
2021/09/21 11:19:37;;;;;;;5.32;3.55;;;27.90;47.10;;;;;;4946302;29;20035;-72
2021/09/21 11:22:06;;;;;;;3.03;2.72;;;27.90;45.40;;;;;;4946299;29;20024;-73
2021/09/21 11:24:33;;;;;;;4.28;3.38;;;27.60;45.70;;;;;;4945457;29;20059;-73
2021/09/21 11:27:03;;;;;;;4.65;3.30;;;26.80;45.70;;;;;;4945339;29;20516;-74
2021/09/21 11:29:29;;;;;;;3.65;2.92;;;26.60;48.10;;;;;;4936920;29;20126;-72
2021/09/21 11:31:55;;;;;;;4.38;3.00;;;27.20;46.80;;;;;;4924994;29;20034;-73
2021/09/21 11:34:24;;;;;;;4.10;3.33;;;27.80;46.50;;;;;;4933074;29;20047;-74
2021/09/21 11:36:51;;;;;;;4.40;4.00;;;28.40;45.80;;;;;;4954292;29;20042;-77
2021/09/21 11:39:17;;;;;;;3.92;3.30;;;28.80;46.30;;;;;;4936977;29;20124;-73
2021/09/21 11:41:43;;;;;;;3.22;2.92;;;29.00;41.20;;;;;;4937254;29;20576;-73
2021/09/21 11:44:09;;;;;;;3.47;2.90;;;29.00;41.30;;;;;;4939973;29;20095;-74
2021/09/21 11:46:35;;;;;;;3.47;2.42;;;29.40;39.80;;;;;;4933294;29;20495;-76
2021/09/21 11:49:03;;;;;;;3.67;2.60;;;30.70;39.80;;;;;;4936787;29;20082;-82
2021/09/21 11:51:34;;;;;;;2.70;2.42;;;31.90;35.90;;;;;;4936800;29;20027;-79
2021/09/21 11:54:00;;;;;;;2.92;2.13;;;33.20;34.70;;;;;;4935295;29;20038;-77
2021/09/21 11:56:26;;;;;;;2.78;2.38;;;35.00;35.00;;;;;;4947756;29;20396;-78
2021/09/21 11:58:59;;;;;;;2.58;2.00;;;36.00;32.10;;;;;;4954622;29;20568;-76
2021/09/21 12:01:25;;;;;;;3.05;2.47;;;35.00;29.70;;;;;;4927130;28;20090;-78
2021/09/21 12:03:53;;;;;;;2.83;2.63;;;33.90;31.70;;;;;;4912756;29;20031;-78
2021/09/21 12:06:33;;;;;;;3.15;2.45;;;35.50;31.70;;;;;;4916600;29;20509;-78
2021/09/21 12:09:01;;;;;;;2.72;2.10;;;36.00;29.00;;;;;;4914254;29;20031;-78
2021/09/21 12:11:27;;;;;;;3.20;2.90;;;35.20;28.90;;;;;;4919864;29;20093;-76
2021/09/21 12:13:52;;;;;;;3.45;2.53;;;34.50;27.30;;;;;;4916630;29;20035;-76
2021/09/21 12:16:20;;;;;;;2.75;2.10;;;34.90;28.10;;;;;;4917587;29;20100;-78
2021/09/21 12:18:46;;;;;;;2.10;1.90;;;36.60;31.80;;;;;;4918334;29;20042;-76
2021/09/21 12:21:14;;;;;;;2.00;1.90;;;38.20;29.10;;;;;;4930660;29;20039;-76
2021/09/21 12:23:44;;;;;;;2.22;2.03;;;39.30;25.50;;;;;;4925914;29;20035;-76
2021/09/21 12:26:12;;;;;;;2.15;1.85;;;39.70;25.60;;;;;;4943132;29;20024;-79
2021/09/21 12:28:40;;;;;;;2.40;2.20;;;40.70;24.50;;;;;;4944239;29;20118;-77
2021/09/21 12:31:14;;;;;;;2.47;2.28;;;41.10;22.30;;;;;;4945726;29;20035;-75
2021/09/21 12:33:41;;;;;;;1.92;1.80;;;40.30;21.60;;;;;;4944059;29;20097;-75
2021/09/21 12:36:20;;;;;;;2.70;1.75;;;40.90;22.90;;;;;;4944950;29;20110;-76
2021/09/21 12:38:57;;;;;;;2.05;1.90;;;41.20;21.80;;;;;;4925877;29;20050;-75
2021/09/21 12:41:23;;;;;;;1.90;1.70;;;41.20;21.60;;;;;;4944962;29;20030;-76
2021/09/21 12:43:53;;;;;;;1.80;1.70;;;40.10;19.50;;;;;;4941022;29;20108;-77
2021/09/21 12:46:19;;;;;;;3.17;1.90;;;37.40;23.80;;;;;;4944061;29;20034;-77
2021/09/21 12:48:45;;;;;;;2.35;1.80;;;39.00;23.80;;;;;;4947251;29;20043;-77
2021/09/21 12:51:11;;;;;;;2.22;2.03;;;38.70;22.70;;;;;;4943230;29;20023;-77
2021/09/21 12:53:38;;;;;;;1.85;1.70;;;39.50;22.40;;;;;;4944014;29;20047;-78
2021/09/21 12:56:10;;;;;;;1.80;1.70;;;40.50;22.60;;;;;;4951120;28;20042;-78